createdAt,value
2022-12-16T00:01:55.779Z,47.00
2022-12-16T00:04:23.827Z,52.45
2022-12-16T00:06:52.044Z,46.80
2022-12-16T00:09:21.262Z,46.22
2022-12-16T00:11:49.844Z,46.30
2022-12-16T00:14:18.056Z,47.03
2022-12-16T00:16:47.721Z,44.97
2022-12-16T00:19:15.816Z,48.72
2022-12-16T00:21:43.816Z,46.85
2022-12-16T00:24:11.867Z,50.75
2022-12-16T00:26:40.265Z,50.08
2022-12-16T00:29:10.987Z,50.35
2022-12-16T00:31:39.083Z,49.25
2022-12-16T00:34:08.437Z,47.40
2022-12-16T00:36:36.516Z,48.42
2022-12-16T00:39:04.875Z,43.05
2022-12-16T00:41:33.205Z,42.72
2022-12-16T00:44:01.072Z,47.42
2022-12-16T00:46:29.220Z,43.40
2022-12-16T00:48:57.084Z,49.88
2022-12-16T00:51:26.377Z,46.78
2022-12-16T00:53:54.082Z,43.17
2022-12-16T00:56:22.118Z,45.88
2022-12-16T00:58:50.466Z,39.38
2022-12-16T01:01:19.047Z,45.67
2022-12-16T01:03:47.424Z,43.28
2022-12-16T01:06:17.816Z,43.80
2022-12-16T01:08:49.019Z,47.05
2022-12-16T01:11:17.449Z,43.15
2022-12-16T01:13:48.138Z,41.67
2022-12-16T01:16:18.514Z,46.65
2022-12-16T01:18:46.570Z,46.33
2022-12-16T01:21:16.713Z,47.15
2022-12-16T01:23:46.360Z,54.22
2022-12-16T01:26:18.409Z,46.97
2022-12-16T01:28:47.632Z,43.08
2022-12-16T01:31:17.555Z,43.80
2022-12-16T01:33:45.916Z,47.38
2022-12-16T01:36:14.128Z,48.03
2022-12-16T01:38:44.391Z,42.78
2022-12-16T01:41:15.335Z,46.85
2022-12-16T01:43:44.458Z,42.10
2022-12-16T01:46:21.256Z,45.17
2022-12-16T01:48:55.063Z,46.40
2022-12-16T01:51:28.420Z,47.78
2022-12-16T01:54:01.909Z,47.95
2022-12-16T01:56:34.892Z,42.30
2022-12-16T01:59:04.615Z,47.28
2022-12-16T02:01:33.127Z,44.70
2022-12-16T02:04:04.365Z,49.00
2022-12-16T02:06:33.558Z,47.53
2022-12-16T02:09:04.431Z,48.88
2022-12-16T02:11:49.003Z,42.30
2022-12-16T02:14:43.123Z,52.87
2022-12-16T02:17:20.756Z,45.53
2022-12-16T02:20:16.574Z,48.47
2022-12-16T02:23:00.632Z,46.20
2022-12-16T02:25:48.625Z,41.00
2022-12-16T02:28:36.068Z,48.33
2022-12-16T02:31:21.490Z,47.65
2022-12-16T02:36:32.940Z,45.55
2022-12-16T02:39:06.621Z,47.15
2022-12-16T02:41:44.350Z,46.92
2022-12-16T02:44:14.567Z,47.40
2022-12-16T02:46:46.164Z,44.38
2022-12-16T02:49:53.264Z,48.80
2022-12-16T02:52:24.552Z,48.10
2022-12-16T02:54:57.256Z,48.80
2022-12-16T02:57:51.978Z,41.28
2022-12-16T03:00:25.057Z,47.15
2022-12-16T03:03:02.652Z,49.55
2022-12-16T03:05:34.645Z,49.83
2022-12-16T03:08:07.743Z,53.08
2022-12-16T03:10:40.323Z,48.42
2022-12-16T03:13:09.814Z,51.38
2022-12-16T03:15:37.749Z,48.83
2022-12-16T03:18:10.674Z,50.03
2022-12-16T03:20:45.493Z,49.40
2022-12-16T03:23:18.002Z,47.45
2022-12-16T03:25:48.921Z,51.92
2022-12-16T03:28:29.436Z,53.40
2022-12-16T03:31:05.082Z,44.35
2022-12-16T03:33:39.846Z,47.90
2022-12-16T03:36:14.337Z,46.38
2022-12-16T03:38:45.648Z,50.85
2022-12-16T03:41:14.658Z,53.30
2022-12-16T03:43:42.614Z,56.42
2022-12-16T03:46:11.886Z,51.38
2022-12-16T03:48:46.770Z,46.92
2022-12-16T03:51:15.185Z,46.03
2022-12-16T03:53:43.864Z,44.05
2022-12-16T03:56:12.743Z,55.40
2022-12-16T03:58:41.546Z,60.28
2022-12-16T04:01:10.943Z,52.08
2022-12-16T04:03:39.393Z,58.80
2022-12-16T04:06:12.543Z,62.15
2022-12-16T04:08:42.638Z,59.33
2022-12-16T04:11:28.125Z,52.72
2022-12-16T04:16:59.206Z,69.67
2022-12-16T04:19:49.664Z,69.10
2022-12-16T04:22:41.174Z,77.90
2022-12-16T04:25:13.726Z,69.55
2022-12-16T04:27:47.319Z,73.30
2022-12-16T04:30:22.711Z,75.03
2022-12-16T04:33:15.478Z,76.63
2022-12-16T04:36:01.328Z,75.68
2022-12-16T04:38:48.752Z,75.78
2022-12-16T04:41:46.004Z,80.07
2022-12-16T04:44:32.152Z,74.25
2022-12-16T04:47:18.508Z,82.18
2022-12-16T04:50:07.320Z,79.00
2022-12-16T04:52:52.843Z,82.65
2022-12-16T04:58:25.877Z,74.80
2022-12-16T05:01:11.166Z,82.78
2022-12-16T05:03:56.948Z,80.53
2022-12-16T05:06:42.478Z,73.80
2022-12-16T05:12:11.136Z,76.05
2022-12-16T05:14:57.082Z,75.90
2022-12-16T05:17:43.329Z,76.60
2022-12-16T05:20:29.966Z,84.65
2022-12-16T05:23:15.945Z,75.90
2022-12-16T05:26:02.312Z,89.07
2022-12-16T05:28:49.140Z,80.82
2022-12-16T05:31:35.195Z,80.05
2022-12-16T05:34:21.192Z,81.72
2022-12-16T05:37:18.331Z,98.55
2022-12-16T05:40:03.997Z,88.05
2022-12-16T05:42:50.046Z,84.25
2022-12-16T05:45:37.179Z,80.57
2022-12-16T05:48:22.851Z,82.72
2022-12-16T05:51:07.998Z,82.03
2022-12-16T05:53:53.406Z,76.60
2022-12-16T05:56:38.873Z,76.03
2022-12-16T05:59:24.605Z,66.45
2022-12-16T06:02:11.704Z,74.90
2022-12-16T06:04:56.751Z,68.75
2022-12-16T06:07:41.944Z,67.00
2022-12-16T06:10:33.370Z,73.20
2022-12-16T06:13:19.331Z,77.22
2022-12-16T06:16:08.642Z,68.25
2022-12-16T06:18:56.253Z,82.55
2022-12-16T06:21:41.856Z,64.47
2022-12-16T06:27:12.820Z,63.10
2022-12-16T06:29:58.194Z,64.47
2022-12-16T06:32:43.820Z,66.72
2022-12-16T06:35:34.235Z,61.88
2022-12-16T06:38:19.747Z,58.70
2022-12-16T06:41:05.479Z,62.78
2022-12-16T06:43:50.514Z,57.72
2022-12-16T06:46:35.991Z,55.65
2022-12-16T06:49:21.182Z,63.47
2022-12-16T06:52:20.785Z,57.25
2022-12-16T06:55:05.860Z,58.97
2022-12-16T06:57:51.585Z,50.67
2022-12-16T07:00:37.198Z,54.10
2022-12-16T07:06:11.368Z,53.07
2022-12-16T07:08:58.154Z,56.33
2022-12-16T07:11:43.277Z,58.20
2022-12-16T07:14:28.843Z,67.43
2022-12-16T07:17:25.645Z,88.68
2022-12-16T07:20:11.567Z,54.42
2022-12-16T07:23:08.401Z,50.22
2022-12-16T07:25:59.147Z,53.00
2022-12-16T07:28:44.500Z,52.17
2022-12-16T07:31:30.107Z,48.55
2022-12-16T07:36:59.550Z,50.75
2022-12-16T07:39:54.816Z,52.20
2022-12-16T07:42:42.369Z,48.80
2022-12-16T07:45:28.471Z,44.63
2022-12-16T07:48:14.755Z,47.08
2022-12-16T07:51:00.439Z,44.33
2022-12-16T07:53:46.288Z,42.28
2022-12-16T07:56:31.514Z,43.60
2022-12-16T07:59:18.253Z,42.78
2022-12-16T08:02:03.468Z,38.42
2022-12-16T08:04:49.519Z,42.42
2022-12-16T08:07:34.721Z,42.58
2022-12-16T08:10:20.316Z,39.67
2022-12-16T08:15:52.180Z,45.72
2022-12-16T08:18:38.692Z,46.55
2022-12-16T08:21:24.490Z,45.60
2022-12-16T08:24:09.895Z,48.35
2022-12-16T08:26:55.346Z,47.05
2022-12-16T08:32:32.845Z,44.78
2022-12-16T08:35:18.321Z,52.25
2022-12-16T08:38:07.604Z,53.83
2022-12-16T08:40:57.306Z,44.53
2022-12-16T08:43:42.710Z,50.58
2022-12-16T08:46:28.577Z,71.57
2022-12-16T08:52:01.592Z,52.97
2022-12-16T08:57:32.022Z,53.88
2022-12-16T09:03:03.967Z,53.85
2022-12-16T09:05:50.868Z,59.45
2022-12-16T09:08:36.798Z,59.42
2022-12-16T09:11:22.149Z,50.83
2022-12-16T09:14:07.790Z,58.17
2022-12-16T09:16:53.696Z,58.28
2022-12-16T09:19:42.326Z,55.95
2022-12-16T09:22:29.036Z,51.05
2022-12-16T09:25:19.952Z,48.53
2022-12-16T09:28:07.874Z,43.83
2022-12-16T09:30:54.577Z,50.45
2022-12-16T09:33:40.854Z,51.22
2022-12-16T09:36:38.597Z,47.28
2022-12-16T09:39:25.830Z,46.40
2022-12-16T09:42:20.510Z,48.60
2022-12-16T09:45:15.118Z,48.67
2022-12-16T09:48:13.591Z,57.53
2022-12-16T09:51:01.640Z,58.17
2022-12-16T09:53:51.043Z,46.40
2022-12-16T09:56:43.936Z,45.47
2022-12-16T09:59:32.837Z,50.55
2022-12-16T10:02:18.731Z,49.15
2022-12-16T10:05:09.897Z,50.67
2022-12-16T10:08:00.877Z,48.85
2022-12-16T10:11:13.261Z,49.70
2022-12-16T10:14:15.985Z,47.22
2022-12-16T10:17:15.302Z,54.80
2022-12-16T10:20:13.191Z,45.28
2022-12-16T10:23:08.266Z,40.92
2022-12-16T10:28:58.871Z,44.00
2022-12-16T10:31:57.541Z,47.00
2022-12-16T10:34:47.718Z,43.28
2022-12-16T10:37:39.325Z,47.05
2022-12-16T10:40:26.497Z,47.85
2022-12-16T10:43:22.587Z,48.05
2022-12-16T10:46:12.098Z,42.78
2022-12-16T10:48:58.145Z,43.25
2022-12-16T10:51:47.608Z,43.33
2022-12-16T10:54:44.527Z,46.17
2022-12-16T10:57:37.953Z,45.72
2022-12-16T11:00:32.575Z,45.58
2022-12-16T11:03:48.250Z,42.67
2022-12-16T11:06:39.430Z,47.13
2022-12-16T11:10:00.754Z,42.65
2022-12-16T11:12:48.476Z,42.65
2022-12-16T11:15:43.867Z,40.28
2022-12-16T11:18:40.537Z,41.92
2022-12-16T11:21:32.084Z,41.67
2022-12-16T11:24:29.843Z,39.53
2022-12-16T11:27:17.539Z,43.38
2022-12-16T11:30:14.023Z,41.30
2022-12-16T11:33:04.438Z,40.60
2022-12-16T11:35:52.611Z,40.78
2022-12-16T11:38:42.832Z,44.17
2022-12-16T11:41:40.165Z,45.97
2022-12-16T11:44:33.496Z,50.15
2022-12-16T11:47:18.679Z,42.55
2022-12-16T11:50:03.916Z,51.25
2022-12-16T11:52:50.906Z,49.53
2022-12-16T11:56:04.982Z,45.38
2022-12-16T11:58:57.529Z,49.13
2022-12-16T12:01:47.370Z,49.00
2022-12-16T12:04:33.106Z,54.67
2022-12-16T12:07:44.492Z,46.03
2022-12-16T12:10:47.527Z,47.67
2022-12-16T12:13:58.399Z,43.58
2022-12-16T12:16:57.411Z,47.70
2022-12-16T12:19:52.407Z,44.78
2022-12-16T12:22:47.264Z,40.97
2022-12-16T12:25:42.621Z,42.70
2022-12-16T12:28:39.424Z,43.70
2022-12-16T12:31:37.662Z,46.35
2022-12-16T12:34:34.436Z,46.50
2022-12-16T12:37:28.663Z,45.55
2022-12-16T12:40:26.518Z,44.25
2022-12-16T12:46:26.597Z,37.42
2022-12-16T12:49:20.332Z,36.25
2022-12-16T12:52:16.603Z,34.85
2022-12-16T12:55:11.062Z,36.97
2022-12-16T12:57:59.537Z,32.47
2022-12-16T13:00:48.187Z,33.00
2022-12-16T13:03:42.855Z,40.22
2022-12-16T13:06:29.376Z,42.33
2022-12-16T13:09:17.658Z,70.30
2022-12-16T13:12:38.367Z,35.45
2022-12-16T13:15:25.339Z,33.35
2022-12-16T13:18:38.992Z,29.92
2022-12-16T13:22:02.586Z,31.83
2022-12-16T13:25:05.219Z,29.77
2022-12-16T13:28:08.961Z,28.70
2022-12-16T13:30:54.856Z,32.60
2022-12-16T13:33:43.608Z,31.40
2022-12-16T13:36:31.227Z,32.13
2022-12-16T13:39:22.798Z,32.90
2022-12-16T13:42:17.854Z,29.35
2022-12-16T13:45:16.888Z,32.88
2022-12-16T13:48:20.993Z,25.00
2022-12-16T13:51:09.112Z,24.60
2022-12-16T13:54:01.654Z,20.08
2022-12-16T13:56:53.109Z,19.70
2022-12-16T13:59:44.166Z,25.25
2022-12-16T14:02:46.068Z,29.15
2022-12-16T14:05:39.205Z,25.98
2022-12-16T14:08:29.578Z,24.58
2022-12-16T14:11:19.565Z,23.52
2022-12-16T14:14:11.768Z,20.75
2022-12-16T14:17:10.212Z,21.75
2022-12-16T14:20:11.983Z,23.23
2022-12-16T14:23:32.534Z,23.50
2022-12-16T14:26:27.275Z,21.05
2022-12-16T14:29:13.612Z,24.90
2022-12-16T14:32:02.121Z,84.20
2022-12-16T14:34:50.115Z,27.42
2022-12-16T14:37:37.119Z,23.67
2022-12-16T14:40:24.919Z,26.38
2022-12-16T14:43:12.979Z,29.55
2022-12-16T14:46:07.203Z,23.35
2022-12-16T14:48:56.625Z,24.52
2022-12-16T14:51:47.602Z,20.70
2022-12-16T14:54:42.906Z,27.00
2022-12-16T14:57:31.858Z,21.00
2022-12-16T15:00:33.175Z,33.00
2022-12-16T15:03:24.118Z,31.55
2022-12-16T15:06:11.916Z,18.83
2022-12-16T15:09:07.144Z,21.92
2022-12-16T15:11:55.672Z,17.87
2022-12-16T15:14:48.347Z,17.95
2022-12-16T15:17:41.568Z,19.73
2022-12-16T15:20:36.758Z,24.73
2022-12-16T15:23:34.676Z,18.50
2022-12-16T15:26:20.593Z,23.13
2022-12-16T15:31:52.833Z,22.95
2022-12-16T15:34:44.828Z,21.23
2022-12-16T15:37:37.030Z,21.10
2022-12-16T15:40:36.596Z,19.92
2022-12-16T15:43:22.671Z,18.75
2022-12-16T15:46:09.256Z,18.55
2022-12-16T15:48:56.312Z,21.90
2022-12-16T15:51:48.187Z,18.20
2022-12-16T15:54:36.943Z,17.08
2022-12-16T15:57:46.242Z,17.77
2022-12-16T16:00:41.154Z,16.38
2022-12-16T16:03:45.849Z,22.10
2022-12-16T16:06:39.949Z,20.88
2022-12-16T16:09:32.758Z,20.95
2022-12-16T16:12:17.927Z,18.73
2022-12-16T16:15:04.726Z,19.25
2022-12-16T16:17:50.813Z,26.95
2022-12-16T16:20:37.407Z,22.90
2022-12-16T16:23:23.168Z,21.45
2022-12-16T16:26:08.472Z,22.48
2022-12-16T16:28:54.466Z,21.25
2022-12-16T16:31:41.394Z,24.13
2022-12-16T16:34:27.459Z,21.33
2022-12-16T16:37:14.996Z,24.80
2022-12-16T16:40:01.115Z,23.63
2022-12-16T16:42:47.309Z,24.58
2022-12-16T16:45:32.976Z,33.22
2022-12-16T16:48:28.561Z,30.27
2022-12-16T16:51:15.490Z,31.40
2022-12-16T16:54:01.725Z,36.05
2022-12-16T16:56:50.426Z,27.98
2022-12-16T16:59:36.411Z,25.92
2022-12-16T17:02:22.685Z,26.08
2022-12-16T17:05:09.661Z,26.25
2022-12-16T17:07:55.426Z,19.83
2022-12-16T17:10:40.878Z,23.13
2022-12-16T17:13:28.092Z,26.98
2022-12-16T17:16:14.065Z,22.63
2022-12-16T17:19:00.039Z,21.83
2022-12-16T17:21:47.668Z,22.00
2022-12-16T17:24:32.897Z,25.35
2022-12-16T17:27:26.483Z,26.17
2022-12-16T17:30:12.081Z,23.00
2022-12-16T17:35:42.866Z,26.00
2022-12-16T17:38:31.478Z,25.67
2022-12-16T17:41:16.881Z,25.58
2022-12-16T17:44:02.633Z,29.02
2022-12-16T17:46:47.813Z,21.33
2022-12-16T17:49:29.701Z,21.80
2022-12-16T17:52:15.406Z,25.27
2022-12-16T17:55:02.629Z,24.95
2022-12-16T17:57:48.309Z,26.25
2022-12-16T18:00:34.678Z,23.52
2022-12-16T18:03:19.973Z,22.83
2022-12-16T18:06:06.301Z,21.95
2022-12-16T18:08:51.433Z,27.30
2022-12-16T18:11:38.974Z,22.65
2022-12-16T18:14:24.094Z,23.45
2022-12-16T18:17:09.864Z,28.23
2022-12-16T18:20:06.462Z,24.15
2022-12-16T18:22:52.614Z,26.25
2022-12-16T18:25:37.995Z,24.92
2022-12-16T18:28:25.112Z,21.95
2022-12-16T18:31:10.417Z,24.08
2022-12-16T18:33:56.159Z,29.30
2022-12-16T18:36:41.343Z,29.77
2022-12-16T18:39:27.014Z,25.08
2022-12-16T18:42:11.902Z,31.92
2022-12-16T18:45:01.268Z,25.45
2022-12-16T18:47:47.039Z,24.63
2022-12-16T18:50:37.487Z,26.10
2022-12-16T18:53:24.060Z,24.83
2022-12-16T18:56:18.546Z,31.05
2022-12-16T18:59:04.796Z,26.42
2022-12-16T19:01:52.412Z,28.38
2022-12-16T19:04:37.874Z,32.53
2022-12-16T19:07:23.920Z,32.42
2022-12-16T19:10:17.497Z,35.15
2022-12-16T19:13:03.401Z,29.90
2022-12-16T19:15:48.419Z,30.58
2022-12-16T19:18:36.414Z,36.75
2022-12-16T19:21:30.777Z,30.88
2022-12-16T19:24:16.627Z,28.73
2022-12-16T19:27:08.193Z,29.77
2022-12-16T19:30:00.134Z,28.80
2022-12-16T19:32:45.478Z,31.40
2022-12-16T19:35:32.868Z,34.72
2022-12-16T19:38:18.139Z,29.25
2022-12-16T19:41:10.372Z,30.23
2022-12-16T19:44:03.440Z,31.80
2022-12-16T19:46:51.611Z,29.88
2022-12-16T19:49:42.339Z,38.25
2022-12-16T19:52:31.513Z,34.45
2022-12-16T19:55:21.207Z,36.33
2022-12-16T19:58:06.869Z,40.58
2022-12-16T20:00:52.479Z,40.97
2022-12-16T20:03:39.919Z,38.83
2022-12-16T20:06:27.369Z,40.83
2022-12-16T20:09:15.553Z,39.53
2022-12-16T20:12:01.526Z,39.88
2022-12-16T20:14:47.408Z,39.05
2022-12-16T20:17:32.752Z,36.45
2022-12-16T20:20:18.205Z,33.85
2022-12-16T20:23:03.456Z,42.40
2022-12-16T20:25:50.695Z,32.30
2022-12-16T20:28:36.909Z,31.30
2022-12-16T20:31:23.787Z,35.85
2022-12-16T20:34:11.913Z,32.22
2022-12-16T20:36:58.067Z,36.55
2022-12-16T20:39:46.642Z,33.10
2022-12-16T20:42:36.975Z,34.17
2022-12-16T20:45:22.623Z,35.08
2022-12-16T20:48:09.559Z,41.15
2022-12-16T20:50:56.054Z,40.08
2022-12-16T20:53:43.369Z,41.58
2022-12-16T20:56:28.610Z,39.13
2022-12-16T20:59:15.994Z,38.33
2022-12-16T21:02:22.719Z,38.50
2022-12-16T21:05:07.088Z,35.95
2022-12-16T21:07:52.746Z,41.65
2022-12-16T21:10:39.542Z,36.38
2022-12-16T21:13:26.215Z,41.17
2022-12-16T21:16:15.562Z,37.83
2022-12-16T21:19:00.713Z,40.78
2022-12-16T21:21:46.375Z,41.60
2022-12-16T21:24:31.878Z,40.40
2022-12-16T21:30:02.561Z,38.95
2022-12-16T21:32:49.548Z,46.00
2022-12-16T21:35:35.429Z,43.20
2022-12-16T21:38:29.621Z,40.90
2022-12-16T21:41:15.047Z,37.13
2022-12-16T21:46:46.161Z,32.95
2022-12-16T21:52:17.895Z,41.47
2022-12-16T21:55:03.643Z,38.92
2022-12-16T21:57:48.608Z,37.83
2022-12-16T22:00:35.595Z,49.50
2022-12-16T22:03:20.750Z,40.25
2022-12-16T22:06:07.621Z,40.58
2022-12-16T22:08:53.191Z,41.45
2022-12-16T22:11:41.299Z,42.58
2022-12-16T22:14:26.556Z,36.42
2022-12-16T22:17:12.325Z,38.17
2022-12-16T22:19:57.301Z,39.80
2022-12-16T22:22:44.113Z,39.72
2022-12-16T22:25:29.524Z,42.58
2022-12-16T22:31:00.273Z,35.13
2022-12-16T22:33:45.761Z,38.33
2022-12-16T22:42:04.575Z,36.97
2022-12-16T22:44:50.455Z,35.75
2022-12-16T22:47:35.659Z,36.80
2022-12-16T22:50:22.187Z,44.28
2022-12-16T22:53:07.940Z,36.28
2022-12-16T22:55:58.718Z,38.17
2022-12-16T22:58:47.051Z,38.63
2022-12-16T23:01:32.228Z,36.45
2022-12-16T23:04:17.493Z,35.90
2022-12-16T23:07:02.892Z,37.15
2022-12-16T23:09:48.018Z,35.20
2022-12-16T23:12:34.970Z,38.70
2022-12-16T23:15:20.487Z,39.25
2022-12-16T23:20:51.614Z,34.65
2022-12-16T23:23:38.145Z,36.25
2022-12-16T23:26:38.086Z,32.90
2022-12-16T23:29:25.635Z,37.55
2022-12-16T23:32:11.254Z,39.25
2022-12-16T23:34:59.648Z,37.13
2022-12-16T23:37:44.653Z,39.30
2022-12-16T23:40:30.700Z,41.38
2022-12-16T23:43:15.720Z,45.80
2022-12-16T23:46:03.407Z,43.72
2022-12-16T23:48:48.830Z,40.15
2022-12-16T23:51:34.160Z,36.45
2022-12-16T23:54:19.184Z,34.05
2022-12-16T23:57:05.035Z,38.85
2022-12-16T23:59:50.108Z,31.67
